createdAt,value
2022-12-08T00:01:15.826Z,17.40
2022-12-08T00:03:42.590Z,17.40
2022-12-08T00:06:37.108Z,17.40
2022-12-08T00:09:21.924Z,17.30
2022-12-08T00:11:49.388Z,17.30
2022-12-08T00:14:15.966Z,17.30
2022-12-08T00:16:42.676Z,17.40
2022-12-08T00:19:09.229Z,17.30
2022-12-08T00:21:35.782Z,17.30
2022-12-08T00:24:02.328Z,17.20
2022-12-08T00:26:28.872Z,17.20
2022-12-08T00:28:55.412Z,17.10
2022-12-08T00:31:22.057Z,17.10
2022-12-08T00:33:48.644Z,17.10
2022-12-08T00:36:15.284Z,17.10
2022-12-08T00:38:42.286Z,17.10
2022-12-08T00:41:12.041Z,17.20
2022-12-08T00:43:38.662Z,17.40
2022-12-08T00:46:05.446Z,17.30
2022-12-08T00:48:32.213Z,17.40
2022-12-08T00:50:59.979Z,17.30
2022-12-08T00:53:26.516Z,17.50
2022-12-08T00:55:53.227Z,17.40
2022-12-08T00:58:19.796Z,17.40
2022-12-08T01:00:46.432Z,17.60
2022-12-08T01:03:13.232Z,17.40
2022-12-08T01:05:39.846Z,17.60
2022-12-08T01:08:07.337Z,17.60
2022-12-08T01:10:37.530Z,17.50
2022-12-08T01:13:04.476Z,17.50
2022-12-08T01:15:31.036Z,17.60
2022-12-08T01:17:57.653Z,17.60
2022-12-08T01:20:24.411Z,17.60
2022-12-08T01:22:51.011Z,17.60
2022-12-08T01:25:17.605Z,17.70
2022-12-08T01:27:44.164Z,17.80
2022-12-08T01:30:10.927Z,17.60
2022-12-08T01:32:37.709Z,17.70
2022-12-08T01:35:04.337Z,17.60
2022-12-08T01:37:30.893Z,17.60
2022-12-08T01:39:57.430Z,17.50
2022-12-08T01:42:24.590Z,17.50
2022-12-08T01:45:04.577Z,17.60
2022-12-08T01:47:39.338Z,17.50
2022-12-08T01:50:06.863Z,17.50
2022-12-08T01:52:36.362Z,17.50
2022-12-08T01:55:06.122Z,17.60
2022-12-08T01:57:35.131Z,17.60
2022-12-08T02:00:07.028Z,17.60
2022-12-08T02:02:41.884Z,17.70
2022-12-08T02:05:09.491Z,17.80
2022-12-08T02:07:36.733Z,17.80
2022-12-08T02:10:04.033Z,17.70
2022-12-08T02:12:30.854Z,17.60
2022-12-08T02:15:01.845Z,17.60
2022-12-08T02:17:31.480Z,17.50
2022-12-08T02:20:10.219Z,17.60
2022-12-08T02:22:48.756Z,17.50
2022-12-08T02:25:20.922Z,17.50
2022-12-08T02:28:05.835Z,17.40
2022-12-08T02:30:58.113Z,17.40
2022-12-08T02:33:34.544Z,17.40
2022-12-08T02:36:12.647Z,17.40
2022-12-08T02:38:58.073Z,17.40
2022-12-08T02:41:24.912Z,17.30
2022-12-08T02:43:54.609Z,17.40
2022-12-08T02:46:23.736Z,17.30
2022-12-08T02:48:51.692Z,17.30
2022-12-08T02:51:18.567Z,17.20
2022-12-08T02:53:45.514Z,17.30
2022-12-08T02:56:14.784Z,17.20
2022-12-08T02:58:44.466Z,17.20
2022-12-08T03:01:28.420Z,17.30
2022-12-08T03:04:18.698Z,17.20
2022-12-08T03:06:51.183Z,17.20
2022-12-08T03:09:36.733Z,17.10
2022-12-08T03:12:12.471Z,17.20
2022-12-08T03:14:40.767Z,17.10
2022-12-08T03:17:08.087Z,17.10
2022-12-08T03:19:37.307Z,17.10
2022-12-08T03:22:05.042Z,17.10
2022-12-08T03:24:36.341Z,17.10
2022-12-08T03:27:04.528Z,17.10
2022-12-08T03:29:32.193Z,17.10
2022-12-08T03:32:02.911Z,17.10
2022-12-08T03:34:30.261Z,17.10
2022-12-08T03:36:56.841Z,17.10
2022-12-08T03:39:23.441Z,17.00
2022-12-08T03:41:50.036Z,17.10
2022-12-08T03:44:16.612Z,17.00
2022-12-08T03:46:43.163Z,17.00
2022-12-08T03:49:09.746Z,17.10
2022-12-08T03:51:36.417Z,17.10
2022-12-08T03:54:03.232Z,17.00
2022-12-08T03:56:31.636Z,17.00
2022-12-08T03:58:58.776Z,17.00
2022-12-08T04:01:25.771Z,16.90
2022-12-08T04:03:52.620Z,17.00
2022-12-08T04:06:19.511Z,17.00
2022-12-08T04:08:46.154Z,17.00
2022-12-08T04:11:12.814Z,17.20
2022-12-08T04:13:39.929Z,17.00
2022-12-08T04:16:07.229Z,16.90
2022-12-08T04:18:34.570Z,16.90
2022-12-08T04:21:01.407Z,17.00
2022-12-08T04:23:28.003Z,16.90
2022-12-08T04:25:54.581Z,16.90
2022-12-08T04:28:21.767Z,16.90
2022-12-08T04:30:48.863Z,16.90
2022-12-08T04:33:15.644Z,16.90
2022-12-08T04:35:42.210Z,16.90
2022-12-08T04:38:08.946Z,16.90
2022-12-08T04:40:35.538Z,16.90
2022-12-08T04:43:02.112Z,16.90
2022-12-08T04:45:28.655Z,16.90
2022-12-08T04:47:55.508Z,17.00
2022-12-08T04:50:22.135Z,16.90
2022-12-08T04:52:48.831Z,16.90
2022-12-08T04:55:15.473Z,16.90
2022-12-08T04:57:42.046Z,16.90
2022-12-08T05:00:09.189Z,16.80
2022-12-08T05:02:35.983Z,16.90
2022-12-08T05:05:02.569Z,16.80
2022-12-08T05:07:29.146Z,16.90
2022-12-08T05:09:55.755Z,16.90
2022-12-08T05:12:22.334Z,16.90
2022-12-08T05:14:48.938Z,16.80
2022-12-08T05:17:16.106Z,16.90
2022-12-08T05:19:42.683Z,17.00
2022-12-08T05:22:09.644Z,16.80
2022-12-08T05:24:36.203Z,16.90
2022-12-08T05:27:03.051Z,16.90
2022-12-08T05:29:29.927Z,16.80
2022-12-08T05:31:56.668Z,16.80
2022-12-08T05:34:23.434Z,16.80
2022-12-08T05:36:50.052Z,16.70
2022-12-08T05:39:16.623Z,16.90
2022-12-08T05:41:43.227Z,16.80
2022-12-08T05:44:09.872Z,16.80
2022-12-08T05:46:36.768Z,16.80
2022-12-08T05:49:03.698Z,16.80
2022-12-08T05:51:30.626Z,16.80
2022-12-08T05:53:57.256Z,16.80
2022-12-08T05:56:23.917Z,16.80
2022-12-08T05:58:50.861Z,16.80
2022-12-08T06:01:21.574Z,16.80
2022-12-08T06:03:48.181Z,16.70
2022-12-08T06:06:14.733Z,16.80
2022-12-08T06:08:41.401Z,16.80
2022-12-08T06:11:08.298Z,16.80
2022-12-08T06:13:34.865Z,16.70
2022-12-08T06:16:05.983Z,16.80
2022-12-08T06:18:33.205Z,16.70
2022-12-08T06:21:06.759Z,16.80
2022-12-08T06:23:33.519Z,16.90
2022-12-08T06:26:00.804Z,16.80
2022-12-08T06:28:27.840Z,16.80
2022-12-08T06:30:54.411Z,16.80
2022-12-08T06:33:20.991Z,16.80
2022-12-08T06:35:47.561Z,16.80
2022-12-08T06:38:14.151Z,16.80
2022-12-08T06:40:40.704Z,16.80
2022-12-08T06:43:07.243Z,16.80
2022-12-08T06:45:33.857Z,16.80
2022-12-08T06:48:01.860Z,16.70
2022-12-08T06:50:28.717Z,16.70
2022-12-08T06:53:03.016Z,16.70
2022-12-08T06:56:01.219Z,16.80
2022-12-08T06:58:18.297Z,16.70
2022-12-08T07:00:45.173Z,16.70
2022-12-08T07:03:11.986Z,16.70
2022-12-08T07:05:38.678Z,16.70
2022-12-08T07:08:06.844Z,16.70
2022-12-08T07:10:33.713Z,16.60
2022-12-08T07:13:00.287Z,16.80
2022-12-08T07:15:27.172Z,16.70
2022-12-08T07:17:59.544Z,16.90
2022-12-08T07:20:26.822Z,17.00
2022-12-08T07:22:53.685Z,17.20
2022-12-08T07:25:20.470Z,17.40
2022-12-08T07:27:47.364Z,17.60
2022-12-08T07:30:14.986Z,17.60
2022-12-08T07:32:41.600Z,17.60
2022-12-08T07:35:08.887Z,17.50
2022-12-08T07:37:36.153Z,17.50
2022-12-08T07:40:03.693Z,17.70
2022-12-08T07:42:30.567Z,17.50
2022-12-08T07:44:57.135Z,17.60
2022-12-08T07:47:23.721Z,17.50
2022-12-08T07:49:51.013Z,17.50
2022-12-08T07:52:17.737Z,17.50
2022-12-08T07:54:44.342Z,17.60
2022-12-08T07:57:10.950Z,17.50
2022-12-08T07:59:37.664Z,17.50
2022-12-08T08:02:23.345Z,17.60
2022-12-08T08:04:51.250Z,17.60
2022-12-08T08:07:17.886Z,17.80
2022-12-08T08:09:45.606Z,17.80
2022-12-08T08:12:30.757Z,17.90
2022-12-08T08:14:58.567Z,17.80
2022-12-08T08:17:25.558Z,17.80
2022-12-08T08:19:52.247Z,17.90
2022-12-08T08:22:18.841Z,18.10
2022-12-08T08:24:45.472Z,17.90
2022-12-08T08:27:17.987Z,18.10
2022-12-08T08:29:44.538Z,18.00
2022-12-08T08:32:35.382Z,17.90
2022-12-08T08:35:02.080Z,17.90
2022-12-08T08:37:28.828Z,17.90
2022-12-08T08:39:56.472Z,18.00
2022-12-08T08:42:23.093Z,17.90
2022-12-08T08:44:49.716Z,18.00
2022-12-08T08:47:16.294Z,17.90
2022-12-08T08:49:42.869Z,17.80
2022-12-08T08:52:11.686Z,17.80
2022-12-08T08:54:38.836Z,17.70
2022-12-08T08:57:05.834Z,17.70
2022-12-08T08:59:35.107Z,17.70
2022-12-08T09:02:02.076Z,17.70
2022-12-08T09:04:28.799Z,17.70
2022-12-08T09:09:48.715Z,17.70
2022-12-08T09:12:15.407Z,17.60
2022-12-08T09:14:41.951Z,17.60
2022-12-08T09:17:08.591Z,17.70
2022-12-08T09:19:35.207Z,17.80
2022-12-08T09:22:01.864Z,17.60
2022-12-08T09:24:28.460Z,17.50
2022-12-08T09:26:55.210Z,17.40
2022-12-08T09:29:21.812Z,17.40
2022-12-08T09:31:48.489Z,17.50
2022-12-08T09:34:15.117Z,17.40
2022-12-08T09:36:41.727Z,17.40
2022-12-08T09:39:08.672Z,17.50
2022-12-08T09:41:48.479Z,17.50
2022-12-08T09:44:21.379Z,17.50
2022-12-08T09:46:50.390Z,17.30
2022-12-08T09:49:19.393Z,17.40
2022-12-08T09:51:46.217Z,17.40
2022-12-08T09:54:18.026Z,17.40
2022-12-08T09:56:44.619Z,17.40
2022-12-08T09:59:11.168Z,17.40
2022-12-08T10:01:41.759Z,17.40
2022-12-08T10:04:23.356Z,17.60
2022-12-08T10:06:55.807Z,17.50
2022-12-08T10:09:25.558Z,17.20
2022-12-08T10:12:10.842Z,17.40
2022-12-08T10:14:42.296Z,17.40
2022-12-08T10:17:11.863Z,17.30
2022-12-08T10:19:39.139Z,17.30
2022-12-08T10:22:14.108Z,17.30
2022-12-08T10:24:43.840Z,17.50
2022-12-08T10:27:11.604Z,17.30
2022-12-08T10:29:39.149Z,17.30
2022-12-08T10:32:13.750Z,17.30
2022-12-08T10:34:58.140Z,17.40
2022-12-08T10:37:24.726Z,17.30
2022-12-08T10:39:58.875Z,17.30
2022-12-08T10:42:28.461Z,17.30
2022-12-08T10:44:59.794Z,17.30
2022-12-08T10:47:27.414Z,17.40
2022-12-08T10:50:06.460Z,17.30
2022-12-08T10:52:37.371Z,17.20
2022-12-08T10:55:04.050Z,17.30
2022-12-08T10:57:30.626Z,17.40
2022-12-08T10:59:57.317Z,17.30
2022-12-08T11:02:24.171Z,17.30
2022-12-08T11:04:59.012Z,17.30
2022-12-08T11:07:26.412Z,17.20
2022-12-08T11:09:55.363Z,17.30
2022-12-08T11:12:22.850Z,17.30
2022-12-08T11:14:49.598Z,17.30
2022-12-08T11:17:22.512Z,17.30
2022-12-08T11:20:04.315Z,17.20
2022-12-08T11:22:32.139Z,17.30
2022-12-08T11:24:59.815Z,17.30
2022-12-08T11:27:27.603Z,17.30
2022-12-08T11:29:54.524Z,17.20
2022-12-08T11:32:21.748Z,17.10
2022-12-08T11:35:00.513Z,17.20
2022-12-08T11:37:35.014Z,17.30
2022-12-08T11:40:06.305Z,17.20
2022-12-08T11:42:35.887Z,17.30
2022-12-08T11:45:07.403Z,17.20
2022-12-08T11:47:40.521Z,17.30
2022-12-08T11:50:18.322Z,17.30
2022-12-08T11:52:47.527Z,17.30
2022-12-08T11:55:16.857Z,17.30
2022-12-08T11:57:44.798Z,17.30
2022-12-08T12:00:13.817Z,17.30
2022-12-08T12:02:42.735Z,17.30
2022-12-08T12:05:39.935Z,17.30
2022-12-08T12:11:06.659Z,17.30
2022-12-08T12:13:39.467Z,17.30
2022-12-08T12:16:06.000Z,17.20
2022-12-08T12:18:32.579Z,17.30
2022-12-08T12:21:01.286Z,17.30
2022-12-08T12:23:44.841Z,17.30
2022-12-08T12:26:24.823Z,17.40
2022-12-08T12:28:54.544Z,17.20
2022-12-08T12:31:32.959Z,17.30
2022-12-08T12:34:25.593Z,17.20
2022-12-08T12:37:12.891Z,17.20
2022-12-08T12:39:58.316Z,17.20
2022-12-08T12:42:44.950Z,17.20
2022-12-08T12:45:16.092Z,17.30
2022-12-08T12:47:58.871Z,17.30
2022-12-08T12:50:28.434Z,17.30
2022-12-08T12:52:55.025Z,17.30
2022-12-08T12:55:22.513Z,17.30
2022-12-08T12:57:53.915Z,17.20
2022-12-08T13:00:22.364Z,17.20
2022-12-08T13:02:49.819Z,17.50
2022-12-08T13:05:19.083Z,17.40
2022-12-08T13:07:49.768Z,17.20
2022-12-08T13:10:19.171Z,17.20
2022-12-08T13:12:46.223Z,17.20
2022-12-08T13:15:17.752Z,17.10
2022-12-08T13:17:46.159Z,17.20
2022-12-08T13:20:18.629Z,17.10
2022-12-08T13:22:50.021Z,17.20
2022-12-08T13:25:37.092Z,17.20
2022-12-08T13:28:15.725Z,17.20
2022-12-08T13:30:55.755Z,17.20
2022-12-08T13:33:23.954Z,17.30
2022-12-08T13:35:55.512Z,17.20
2022-12-08T13:38:25.607Z,17.30
2022-12-08T13:40:53.049Z,17.20
2022-12-08T13:43:36.207Z,17.20
2022-12-08T13:46:57.989Z,17.20
2022-12-08T13:57:28.652Z,17.30
2022-12-08T13:59:59.631Z,17.20
2022-12-08T14:02:28.613Z,17.40
2022-12-08T14:07:42.947Z,17.20
2022-12-08T14:10:14.244Z,17.30
2022-12-08T14:12:43.486Z,17.20
2022-12-08T14:15:12.680Z,17.30
2022-12-08T14:17:39.689Z,17.40
2022-12-08T14:20:12.457Z,17.50
2022-12-08T14:22:40.063Z,17.50
2022-12-08T14:25:08.182Z,17.50
2022-12-08T14:27:36.090Z,17.40
2022-12-08T14:30:18.396Z,17.50
2022-12-08T14:32:48.090Z,17.50
2022-12-08T14:35:20.651Z,17.40
2022-12-08T14:37:48.217Z,17.40
2022-12-08T14:40:22.783Z,17.40
2022-12-08T14:42:50.976Z,17.30
2022-12-08T14:45:18.355Z,17.30
2022-12-08T14:47:45.743Z,17.30
2022-12-08T14:50:31.218Z,17.30
2022-12-08T14:52:57.795Z,17.40
2022-12-08T14:55:24.602Z,17.20
2022-12-08T14:57:51.184Z,17.20
2022-12-08T15:00:19.206Z,17.20
2022-12-08T15:02:46.608Z,17.20
2022-12-08T15:05:16.692Z,17.20
2022-12-08T15:07:54.309Z,17.30
2022-12-08T15:10:23.025Z,17.20
2022-12-08T15:12:58.552Z,17.30
2022-12-08T15:15:25.171Z,17.20
2022-12-08T15:17:58.068Z,17.20
2022-12-08T15:20:31.704Z,17.20
2022-12-08T15:22:59.922Z,17.10
2022-12-08T15:25:26.488Z,17.20
2022-12-08T15:27:53.210Z,17.20
2022-12-08T15:30:20.448Z,17.20
2022-12-08T15:32:47.076Z,17.20
2022-12-08T15:35:14.384Z,17.30
2022-12-08T15:37:53.413Z,17.30
2022-12-08T15:40:21.257Z,17.20
2022-12-08T15:42:48.939Z,17.20
2022-12-08T15:45:16.634Z,17.10
2022-12-08T15:47:43.853Z,17.10
2022-12-08T15:50:15.264Z,17.10
2022-12-08T15:52:45.256Z,17.20
2022-12-08T15:55:12.733Z,17.20
2022-12-08T15:58:31.198Z,17.20
2022-12-08T16:04:13.752Z,17.20
2022-12-08T16:09:16.193Z,17.20
2022-12-08T16:12:07.174Z,17.10
2022-12-08T16:17:22.505Z,17.10
2022-12-08T16:19:49.375Z,17.10
2022-12-08T16:25:23.104Z,17.10
2022-12-08T16:33:07.140Z,17.10
2022-12-08T16:35:33.875Z,17.00
2022-12-08T16:38:00.738Z,17.10
2022-12-08T16:40:27.589Z,17.10
2022-12-08T16:42:54.365Z,17.00
2022-12-08T16:45:26.062Z,17.00
2022-12-08T16:47:54.643Z,17.10
2022-12-08T16:50:22.602Z,17.00
2022-12-08T16:52:50.387Z,17.10
2022-12-08T16:55:18.640Z,17.00
2022-12-08T16:57:47.050Z,17.00
2022-12-08T17:00:16.041Z,17.00
2022-12-08T17:02:42.973Z,17.00
2022-12-08T17:05:10.761Z,16.90
2022-12-08T17:07:37.477Z,17.00
2022-12-08T17:10:06.331Z,17.00
2022-12-08T17:12:35.634Z,17.00
2022-12-08T17:15:03.645Z,17.00
2022-12-08T17:17:31.611Z,17.00
2022-12-08T17:19:58.205Z,16.90
2022-12-08T17:22:25.044Z,17.10
2022-12-08T17:24:51.813Z,17.00
2022-12-08T17:27:18.714Z,17.00
2022-12-08T17:29:45.483Z,17.10
2022-12-08T17:32:12.225Z,17.10
2022-12-08T17:34:38.866Z,17.10
2022-12-08T17:37:05.690Z,17.10
2022-12-08T17:39:32.261Z,17.10
2022-12-08T17:41:58.912Z,17.10
2022-12-08T17:44:25.472Z,17.00
2022-12-08T17:46:53.231Z,17.00
2022-12-08T17:49:21.776Z,17.20
2022-12-08T17:51:49.532Z,17.00
2022-12-08T17:54:16.652Z,17.00
2022-12-08T17:56:43.452Z,17.10
2022-12-08T17:59:11.040Z,17.00
2022-12-08T18:01:37.930Z,17.00
2022-12-08T18:04:05.180Z,17.00
2022-12-08T18:06:32.202Z,17.00
2022-12-08T18:09:00.072Z,17.00
2022-12-08T18:11:27.936Z,16.90
2022-12-08T18:13:55.426Z,17.00
2022-12-08T18:16:23.751Z,17.00
2022-12-08T18:18:50.332Z,17.10
2022-12-08T18:21:23.052Z,17.00
2022-12-08T18:23:50.480Z,17.00
2022-12-08T18:26:17.151Z,17.10
2022-12-08T18:28:43.802Z,16.90
2022-12-08T18:31:14.762Z,16.90
2022-12-08T18:33:42.469Z,16.80
2022-12-08T18:36:09.790Z,16.80
2022-12-08T18:38:36.591Z,16.90
2022-12-08T18:41:26.549Z,16.90
2022-12-08T18:43:53.487Z,17.00
2022-12-08T18:46:20.156Z,17.00
2022-12-08T18:48:48.178Z,17.00
2022-12-08T18:51:16.689Z,17.00
2022-12-08T18:53:43.597Z,16.90
2022-12-08T18:56:20.909Z,16.90
2022-12-08T18:58:47.644Z,17.00
2022-12-08T19:01:14.388Z,16.90
2022-12-08T19:03:45.672Z,16.90
2022-12-08T19:06:25.123Z,16.90
2022-12-08T19:16:51.176Z,16.90
2022-12-08T19:19:17.777Z,16.90
2022-12-08T19:21:46.566Z,16.90
2022-12-08T19:24:13.502Z,16.90
2022-12-08T19:26:40.182Z,16.90
2022-12-08T19:29:07.053Z,16.90
2022-12-08T19:31:33.803Z,16.80
2022-12-08T19:34:00.409Z,16.90
2022-12-08T19:36:27.579Z,16.80
2022-12-08T19:39:12.861Z,16.80
2022-12-08T19:41:58.003Z,16.70
2022-12-08T19:44:28.783Z,16.90
2022-12-08T19:46:55.432Z,16.80
2022-12-08T19:49:22.081Z,16.90
2022-12-08T19:51:48.633Z,16.80
2022-12-08T19:54:15.207Z,16.90
2022-12-08T19:56:41.898Z,16.90
2022-12-08T19:59:08.517Z,16.80
2022-12-08T20:01:35.191Z,16.90
2022-12-08T20:04:01.752Z,16.90
2022-12-08T20:06:28.382Z,16.90
2022-12-08T20:08:55.002Z,16.80
2022-12-08T20:11:21.640Z,16.90
2022-12-08T20:13:48.403Z,16.80
2022-12-08T20:16:15.795Z,16.80
2022-12-08T20:18:42.587Z,16.80
2022-12-08T20:21:09.866Z,16.80
2022-12-08T20:23:36.980Z,16.80
2022-12-08T20:26:04.475Z,16.80
2022-12-08T20:28:31.160Z,16.80
2022-12-08T20:30:57.783Z,16.80
2022-12-08T20:33:24.365Z,16.80
2022-12-08T20:35:59.267Z,16.90
2022-12-08T20:38:26.104Z,16.80
2022-12-08T20:40:52.677Z,16.80
2022-12-08T20:43:19.240Z,16.70
2022-12-08T20:45:45.780Z,16.80
2022-12-08T20:48:12.472Z,16.80
2022-12-08T20:50:39.154Z,16.90
2022-12-08T20:53:05.949Z,16.80
2022-12-08T20:55:32.686Z,16.90
2022-12-08T20:57:59.394Z,16.80
2022-12-08T21:00:27.905Z,16.80
2022-12-08T21:02:56.791Z,16.70
2022-12-08T21:05:23.919Z,16.80
2022-12-08T21:07:50.672Z,16.70
2022-12-08T21:10:17.647Z,16.70
2022-12-08T21:12:48.226Z,17.00
2022-12-08T21:15:14.899Z,16.80
2022-12-08T21:17:41.584Z,16.90
2022-12-08T21:20:08.652Z,16.80
2022-12-08T21:22:35.536Z,16.70
2022-12-08T21:25:02.295Z,16.80
2022-12-08T21:27:29.016Z,16.80
2022-12-08T21:29:55.642Z,16.90
2022-12-08T21:32:27.084Z,16.90
2022-12-08T21:34:56.681Z,16.90
2022-12-08T21:37:49.566Z,16.90
2022-12-08T21:40:16.339Z,16.90
2022-12-08T21:42:45.768Z,16.90
2022-12-08T21:45:14.529Z,17.00
2022-12-08T21:47:41.328Z,16.90
2022-12-08T21:50:08.695Z,16.80
2022-12-08T21:52:42.719Z,16.90
2022-12-08T21:55:10.457Z,16.90
2022-12-08T21:57:37.079Z,16.80
2022-12-08T22:00:04.681Z,16.90
2022-12-08T22:02:31.890Z,16.90
2022-12-08T22:04:58.862Z,16.90
2022-12-08T22:07:25.719Z,16.90
2022-12-08T22:09:52.684Z,16.80
2022-12-08T22:12:22.032Z,16.80
2022-12-08T22:14:50.916Z,16.90
2022-12-08T22:17:24.220Z,16.90
2022-12-08T22:19:51.010Z,17.00
2022-12-08T22:22:17.804Z,16.80
2022-12-08T22:24:44.786Z,16.80
2022-12-08T22:27:11.641Z,16.80
2022-12-08T22:29:38.486Z,16.80
2022-12-08T22:32:05.402Z,16.80
2022-12-08T22:34:32.340Z,16.80
2022-12-08T22:36:59.131Z,16.80
2022-12-08T22:39:25.947Z,17.00
2022-12-08T22:41:53.863Z,16.80
2022-12-08T22:44:20.747Z,16.80
2022-12-08T22:46:47.844Z,16.90
2022-12-08T22:49:14.660Z,16.80
2022-12-08T22:51:41.428Z,16.60
2022-12-08T22:54:10.083Z,16.70
2022-12-08T22:56:36.874Z,16.80
2022-12-08T22:59:04.038Z,16.70
2022-12-08T23:01:31.813Z,16.70
2022-12-08T23:03:59.292Z,16.70
2022-12-08T23:06:26.720Z,16.70
2022-12-08T23:08:54.146Z,16.70
2022-12-08T23:11:21.829Z,16.70
2022-12-08T23:13:48.640Z,16.80
2022-12-08T23:16:15.607Z,16.70
2022-12-08T23:18:43.108Z,16.80
2022-12-08T23:21:11.143Z,16.70
2022-12-08T23:23:37.769Z,16.80
2022-12-08T23:26:05.232Z,16.80
